• Join FlightAware (Why Join?)
  • Login
  • US Flag 
07:30AM EDT


 

Airport Tracker/Info


-or-


 

Live Flight TrackerFlight Track Log ✈ UCA844 ✈ 02-May-2014 ✈ KEWR - KORF

Flight Track Log - Related Links

Times and Time Zones

All times are in EDT time to prevent confusion due to time zone crossing. See the UCA844 flight status page for this flight to view local times or setup timezone preferences in your user account.

Time Position Orientation Groundspeed Altitude Reporting Facility
EDT Latitude Longitude Course Direction KTS MPH feet Rate Location/Type
08:20AM 40.6333 -74.1833 166° South 161 185 2,100  Level New York TRACON
08:21AM 40.6000 -74.2167 217° Southwest 173 199 3,200 1,020 Climbing New York TRACON
08:22AM 40.5500 -74.2667 217° Southwest 194 223 4,200 960 Climbing New York TRACON
08:23AM 40.5000 -74.2500 166° South 212 244 5,200 720 Climbing New York TRACON
08:25AM 40.4227 -74.2131 166° South  Level FlightAware Approximate
08:25AM 40.3786 -74.1956 161° South 241 277 6,600  Level New York Center
08:26AM 40.3172 -74.1600 156° South 241 277 8,000 1,200 Climbing New York Center
08:27AM 40.2711 -74.1686 188° South 198 228 9,100 1,200 Climbing New York Center
08:28AM 40.2247 -74.1881 198° South 167 192 10,500 960 Climbing New York Center
08:29AM 40.1825 -74.2022 194° South 167 192 11,000 240 Climbing New York Center
08:30AM 40.1300 -74.2186 193° South 190 219 11,000  Level New York Center
08:31AM 40.0625 -74.2397 193° South 220 253 11,000  Level New York Center
08:32AM 40.0017 -74.2583 193° South 225 259 11,000 540 Level New York Center
08:33AM 39.9567 -74.2994 215° Southwest 219 252 12,100 1,020 Climbing New York Center
08:34AM 39.9222 -74.3328 217° Southwest 186 214 13,100 840 Climbing New York Center
08:35AM 39.8803 -74.3722 216° Southwest 167 192 14,000 840 Climbing Washington Center
08:36AM 39.8450 -74.4025 213° Southwest 161 185 15,000 900 Climbing Washington Center
08:37AM 39.8161 -74.4325 219° Southwest 147 169 15,900 720 Climbing Washington Center
08:38AM 39.7917 -74.4656 226° Southwest 141 162 16,500 600 Climbing Washington Center
08:39AM 39.7647 -74.4983 223° Southwest 131 151 17,100 540 Climbing Washington Center
08:40AM 39.7400 -74.5364 230° Southwest 131 151 17,700 660 Climbing Washington Center
08:41AM 39.7153 -74.5664 223° Southwest 131 151 18,500 600 Climbing Washington Center
08:42AM 39.6886 -74.5992 223° Southwest 131 151 19,000 540 Climbing Washington Center
08:43AM 39.6639 -74.6344 228° Southwest 131 151 19,600 480 Climbing Washington Center
08:44AM 39.6286 -74.6619 211° Southwest 139 160 20,000 180 Climbing Washington Center
08:45AM 39.5892 -74.6894 208° Southwest 149 171 20,000  Level Washington Center
08:46AM 39.5458 -74.7197 208° Southwest 168 193 20,000  Level Washington Center
08:47AM 39.5000 -74.7469 205° Southwest 180 207 20,000  Level Washington Center
08:48AM 39.4564 -74.7772 208° Southwest 180 207 20,000  Level Washington Center
08:49AM 39.4131 -74.8072 208° Southwest 180 207 20,000  Level Washington Center
08:50AM 39.3672 -74.8372 207° Southwest 180 207 20,000  Level Washington Center
08:51AM 39.3236 -74.8672 208° Southwest 180 207 20,000  Level Washington Center
08:52AM 39.2781 -74.8972 207° Southwest 180 207 20,000  Level Washington Center
08:53AM 39.2325 -74.9269 207° Southwest 180 207 20,000  Level Washington Center
08:54AM 39.1889 -74.9542 206° Southwest 180 207 20,000  Level Washington Center
08:55AM 39.1431 -74.9842 207° Southwest 180 207 20,000  Level Washington Center
08:56AM 39.0975 -75.0139 207° Southwest 180 207 20,000  Level Washington Center
08:57AM 39.0517 -75.0464 209° Southwest 180 207 20,000  Level Washington Center
08:58AM 39.0058 -75.0733 205° Southwest 180 207 20,000  Level Washington Center
08:59AM 38.9603 -75.1058 209° Southwest 180 207 20,000  Level Washington Center
09:00AM 38.9144 -75.1353 207° Southwest 180 207 20,000  Level Washington Center
09:01AM 38.8708 -75.1678 210° Southwest 180 207 20,000  Level Washington Center
09:02AM 38.8272 -75.1972 208° Southwest 180 207 20,000  Level Washington Center
09:03AM 38.7792 -75.2242 204° Southwest 180 207 20,000  Level Washington Center
09:04AM 38.7336 -75.2589 211° Southwest 180 207 20,000  Level Washington Center
09:05AM 38.6856 -75.2883 206° Southwest 180 207 20,000  Level Washington Center
09:06AM 38.6397 -75.3153 205° Southwest 180 207 20,000 -180 Level Washington Center
09:07AM 38.5942 -75.3472 209° Southwest 180 207 19,700 -480 Descending Washington Center
09:08AM 38.5442 -75.3819 209° Southwest 185 213 19,100 -600 Descending Washington Center
09:09AM 38.4900 -75.4139 205° Southwest 199 229 18,500 -660 Descending Washington Center
09:10AM 38.4336 -75.4486 206° Southwest 213 245 17,900 -660 Descending Washington Center
09:11AM 38.3794 -75.4858 208° Southwest 218 251 17,200 -660 Descending Washington Center
09:12AM 38.3253 -75.5203 207° Southwest 218 251 16,600 -600 Descending Washington Center
09:13AM 38.2711 -75.5494 203° Southwest 225 259 16,100 -600 Descending Washington Center
09:14AM 38.2147 -75.5892 209° Southwest 230 265 15,500 -600 Descending Washington Center
09:15AM 38.1544 -75.6233 204° Southwest 237 273 14,900 -600 Descending Washington Center
09:16AM 38.0958 -75.6603 206° Southwest 237 273 14,300 -660 Descending Washington Center
09:17AM 38.0417 -75.7050 213° Southwest 237 273 13,700 -660 Descending Washington Center
09:18AM 37.9833 -75.7339 201° Southwest 237 273 13,100 -660 Descending Washington Center
09:19AM 37.9247 -75.7761 210° Southwest 237 273 12,400 -780 Descending Washington Center
09:20AM 37.8664 -75.8100 205° Southwest 237 273 11,600 -720 Descending Washington Center
09:21AM 37.8017 -75.8414 201° Southwest 242 278 11,000 -780 Descending Washington Center
09:22AM 37.7536 -75.8781 211° Southwest 247 284 10,300 -720 Descending Washington Center
09:22AM 37.7411 -75.8833 198° South 247 284 10,300 -300 Level Washington Center
09:23AM 37.6867 -75.9172 206° Southwest 245 282 10,000 -300 Descending Washington Center
09:23AM 37.6825 -75.9197 205° Southwest 247 284 10,000  Level Washington Center
09:24AM 37.6200 -75.9561 205° Southwest 227 261 10,000 -300 Level Washington Center
09:25AM 37.5614 -75.9769 196° South 242 278 9,500 -780 Descending Washington Center
09:26AM 37.4925 -75.9844 185° South 247 284 8,500 -1,020 Descending Washington Center
09:27AM 37.4217 -75.9919 185° South 253 291 7,500 -1,020 Descending Washington Center
09:28AM 37.3528 -76.0019 187° South 258 297 6,500 -1,020 Descending Washington Center
09:29AM 37.2881 -76.0278 198° South 253 291 5,500 -780 Descending Washington Center
09:30AM 37.2253 -76.0561 200° South 248 285 5,000 -300 Descending Washington Center
09:31AM 37.1647 -76.0922 205° Southwest 248 285 5,000  Level Washington Center
09:32AM 37.1417 -76.1078 208° Southwest 232 267 5,000  Level Washington Center
09:32AM 37.0914 -76.1439 210° Southwest 232 267 5,000  Level Washington Center
09:33AM 37.0392 -76.1747 205° Southwest 232 267 5,000  Level Washington Center
09:34AM 36.9911 -76.2133 213° Southwest 234 269 5,000  Level Washington Center
09:35AM 36.9386 -76.2650 218° Southwest 232 267 5,000 -420 Level Washington Center
09:36AM 36.8883 -76.3164 219° Southwest 180 207 4,200 -1,140 Descending Washington Center
09:37AM 36.8550 -76.2875 145° Southeast 162 186 2,800 -1,680 Descending Washington Center
09:38AM 36.8572 -76.2408 87° East 114 131 900 -1,740 Descending Washington Center